Aurora, CO

8:27 AM MDT on October 23, 2014 (GMT -0600)
Denver | Change Station
CLOSE
Current Station
Airport
Location: Denver,
Elevation: 5430 ft
Nearby Weather Stations

Elev 5430 ft 39.85 °N, 104.66 °W | Updated 34 minutes ago

Partly Cloudy
Partly Cloudy
45 °F
Feels Like 43 °F
N
5
Wind Variable Wind from East

Today
High -- | Low -- °F
--% Chance of Precip.
Yesterday
High -- | Low -- °F
Precip. -- in
7:17 AM 6:07 PM
Waning Crescent, 0% visible
Pressure 30.07 in
Visibility 10.0 miles
Clouds Few 10000 ft
Few 18000 ft
Scattered Clouds 25000 ft
Windchill 43 °F
Dew Point 34 °F
Humidity 65%
Rainfall 0.00 in
Snow Depth Not available.
UV 0 out of 12
Pollen 2.50 out of 12
PM2.5 Moderate
Flu Activity Sporadic
METAR KDEN 231353Z 10004KT 10SM FEW100 FEW180 SCT250 07/01 A3017 RMK AO2 SLP183 ACSL DSNT SW-NW T00720011

More Conditions Fewer Conditions

Pressure 30.07 in
Visibility 10.0 miles
Clouds Few 10000 ft
Few 18000 ft
Scattered Clouds 25000 ft
Windchill 43 °F
Dew Point 34 °F
Humidity 65%
Rainfall 0.00 in
Snow Depth Not available.
UV 0 out of 12
Pollen 2.50 out of 12
PM2.5 Moderate
Flu Activity Sporadic
METAR KDEN 231353Z 10004KT 10SM FEW100 FEW180 SCT250 07/01 A3017 RMK AO2 SLP183 ACSL DSNT SW-NW T00720011

More Conditions Fewer Conditions

10-Day Weather Forecast

Almanac

Astronomy

Oct. 23, 2014 Rise Set
Actual Time 7:17 AM MDT 6:07 PM MDT
Civil Twilight 6:49 AM MDT 6:35 PM MDT
Nautical Twilight 6:18 AM MDT 7:06 PM MDT
Astronomical Twilight 5:47 AM MDT 7:38 PM MDT
Moon 6:59 AM MDT 6:10 PM MDT
Length of Visible Light 11h 45m
Length of Day
10h 50m
Tomorrow will be 2m 27s shorter.
Waning Crescent, 0% of the Moon is Illuminated
Today
Waning Crescent
Oct 23
New
Oct 30
First Quarter
Nov 6
Full
Nov 14
Last Quarter

Today's Extremes

State Highs State Lows

Community

WunderPhotos

Upload Photos

1,764,265 photos uploaded!

Nearby

Air Quality

  Air Quality AQ Index Pollutant
Yesterday Good
OZONE
Yesterday Good
PM10
Current Moderate
PM2.5
Thursday Good
OZONE
Thursday Good
PM2.5

Snow Depth

Station Depth Elevation
Niwot 0 in 9910 ft
Lake Eldora 0 in 9700 ft
University Camp 1 in 10300 ft
Echo Lake 0 in 10600 ft
Copeland Lake 1 in 8600 ft

Earthquake Activity

City Distance Mag. Time & Date
No recent earthquake activity has been reported nearby.
Minimum magnitude displayed is 2.5.

Coastal Water Temperatures

Place Temperature
No Stations Reporting

Nearby Weather Stations